Time;durP1;ratioP1;P1;durP2;ratioP2;P2;SDS_P1;SDS_P2;PMS_P1;PMS_P2;Temp;Humidity;BMP_temperature;BMP_pressure;BME280_temperature;BME280_humidity;BME280_pressure;Samples;Min_cycle;Max_cycle;Signal;HPM_P1;HPM_P2
2023/02/03 00:00:54;;;;;;;7.50;3.30;;;8.20;99.90;;;;;;5078196;28;20621;-68
2023/02/03 00:03:19;;;;;;;6.33;3.37;;;8.20;99.90;;;;;;5078440;28;20264;-68
2023/02/03 00:05:46;;;;;;;10.90;3.17;;;8.20;99.90;;;;;;5070850;28;20293;-68
2023/02/03 00:08:12;;;;;;;4.57;2.80;;;8.20;99.90;;;;;;5074125;28;20185;-68
2023/02/03 00:10:39;;;;;;;6.03;2.90;;;8.20;99.90;;;;;;5059013;28;20523;-68
2023/02/03 00:13:06;;;;;;;5.73;2.87;;;8.20;99.90;;;;;;5074059;28;20451;-68
2023/02/03 00:15:31;;;;;;;4.33;2.83;;;8.30;99.90;;;;;;5076124;28;20950;-68
2023/02/03 00:17:57;;;;;;;6.30;2.87;;;8.30;99.90;;;;;;5073770;28;20448;-68
2023/02/03 00:20:22;;;;;;;5.60;2.70;;;8.30;99.90;;;;;;5068850;28;20698;-68
2023/02/03 00:22:48;;;;;;;12.37;3.50;;;8.20;99.90;;;;;;5077138;28;20320;-68
2023/02/03 00:25:14;;;;;;;7.27;3.10;;;8.20;99.90;;;;;;5073247;28;20218;-68
2023/02/03 00:27:39;;;;;;;6.47;3.07;;;8.20;99.90;;;;;;5074396;28;20202;-67
2023/02/03 00:30:05;;;;;;;5.07;2.97;;;8.20;99.90;;;;;;5054545;28;20253;-67
2023/02/03 00:32:31;;;;;;;4.43;2.53;;;8.20;99.90;;;;;;5074275;28;20191;-68
2023/02/03 00:34:57;;;;;;;4.77;2.90;;;8.30;99.90;;;;;;5068784;28;20505;-68
2023/02/03 00:37:22;;;;;;;3.90;3.40;;;8.30;99.90;;;;;;5070081;28;20214;-68
2023/02/03 00:39:49;;;;;;;8.67;3.17;;;8.30;99.90;;;;;;5072715;28;20221;-68
2023/02/03 00:42:15;;;;;;;4.70;2.67;;;8.30;99.90;;;;;;5072793;28;20321;-67
2023/02/03 00:44:40;;;;;;;4.60;2.60;;;8.20;99.90;;;;;;5070915;28;20493;-66
2023/02/03 00:47:06;;;;;;;3.67;2.70;;;8.30;99.90;;;;;;5070938;28;20965;-67
2023/02/03 00:49:32;;;;;;;4.73;2.80;;;8.30;99.90;;;;;;5074942;28;20564;-67
2023/02/03 00:51:58;;;;;;;5.70;2.90;;;8.40;99.90;;;;;;5074863;28;20440;-67
2023/02/03 00:54:23;;;;;;;5.93;2.60;;;8.40;99.90;;;;;;5073012;28;20194;-67
2023/02/03 00:56:49;;;;;;;3.37;2.40;;;8.40;99.90;;;;;;5079312;28;20205;-66
2023/02/03 00:59:14;;;;;;;4.00;2.30;;;8.40;99.90;;;;;;5072704;28;20263;-67
2023/02/03 01:01:40;;;;;;;7.70;2.73;;;8.40;99.90;;;;;;5057536;28;20243;-67
2023/02/03 01:04:05;;;;;;;4.10;2.40;;;8.40;99.90;;;;;;5056208;28;20548;-66
2023/02/03 01:06:31;;;;;;;3.80;2.43;;;8.30;99.90;;;;;;5074715;28;20356;-66
2023/02/03 01:08:56;;;;;;;3.57;2.20;;;8.30;99.90;;;;;;5071675;28;20299;-67
2023/02/03 01:11:25;;;;;;;7.00;2.87;;;8.40;99.90;;;;;;5071157;28;20225;-67
2023/02/03 01:13:53;;;;;;;6.10;2.97;;;8.40;99.90;;;;;;5069011;28;20190;-67
2023/02/03 01:16:22;;;;;;;3.90;2.53;;;8.50;99.90;;;;;;5071698;28;20464;-68
2023/02/03 01:18:48;;;;;;;5.43;2.93;;;8.40;99.90;;;;;;5071907;28;20534;-68
2023/02/03 01:21:19;;;;;;;5.00;2.47;;;8.40;99.90;;;;;;5072320;28;20837;-67
2023/02/03 01:23:45;;;;;;;7.90;3.03;;;8.40;99.90;;;;;;5072890;28;20618;-67
2023/02/03 01:26:13;;;;;;;3.13;2.80;;;8.40;99.90;;;;;;5071478;28;21266;-67
2023/02/03 01:28:39;;;;;;;3.80;2.60;;;8.50;99.90;;;;;;5073897;28;20437;-69
2023/02/03 01:31:13;;;;;;;3.37;2.50;;;8.50;99.90;;;;;;5073161;28;20817;-68
2023/02/03 01:33:39;;;;;;;5.40;2.90;;;8.40;99.90;;;;;;5053628;28;20178;-68
2023/02/03 01:36:08;;;;;;;5.50;2.77;;;8.40;99.90;;;;;;5068985;28;20464;-68
2023/02/03 01:38:35;;;;;;;6.00;2.70;;;8.40;99.90;;;;;;5074220;28;20849;-68
2023/02/03 01:41:02;;;;;;;3.73;2.53;;;8.40;99.90;;;;;;5076263;28;20493;-67
2023/02/03 01:43:39;;;;;;;8.87;3.00;;;8.50;99.90;;;;;;5069935;28;20942;-67
2023/02/03 01:46:34;;;;;;;3.63;2.70;;;8.50;99.90;;;;;;5072896;28;20516;-68
2023/02/03 01:49:16;;;;;;;7.37;3.27;;;8.60;99.90;;;;;;5068018;28;20445;-68
2023/02/03 01:51:43;;;;;;;4.90;2.67;;;8.50;99.90;;;;;;5072102;28;20795;-68
2023/02/03 01:54:13;;;;;;;7.00;3.20;;;8.50;99.90;;;;;;5075033;28;20479;-67
2023/02/03 01:56:44;;;;;;;3.63;2.33;;;8.50;99.90;;;;;;5075557;28;20503;-67
2023/02/03 01:59:11;;;;;;;6.33;2.93;;;8.50;99.90;;;;;;5068273;28;20704;-67
2023/02/03 02:01:37;;;;;;;6.83;2.90;;;8.50;99.90;;;;;;5066963;28;20565;-68
2023/02/03 02:04:04;;;;;;;4.50;2.80;;;8.40;99.90;;;;;;5070233;28;20455;-67
2023/02/03 02:06:29;;;;;;;5.50;2.63;;;8.40;99.90;;;;;;5054670;28;20623;-67
2023/02/03 02:08:59;;;;;;;4.60;3.10;;;8.30;99.90;;;;;;5067728;28;20514;-67
2023/02/03 02:11:26;;;;;;;4.50;2.77;;;8.30;99.90;;;;;;5070775;28;20821;-67
2023/02/03 02:13:53;;;;;;;3.20;1.80;;;8.20;99.90;;;;;;5070308;28;20945;-67
2023/02/03 02:16:45;;;;;;;4.27;2.70;;;8.10;99.90;;;;;;5071439;28;20468;-67
2023/02/03 02:19:34;;;;;;;4.70;2.80;;;8.10;99.90;;;;;;5069689;28;20808;-67
2023/02/03 02:22:07;;;;;;;4.93;2.40;;;8.20;99.90;;;;;;5068896;28;20479;-66
2023/02/03 02:24:54;;;;;;;2.90;2.40;;;8.20;99.90;;;;;;5074886;28;20448;-67
2023/02/03 02:28:04;;;;;;;3.13;2.50;;;8.20;99.90;;;;;;5071963;28;20459;-67
2023/02/03 02:30:55;;;;;;;2.83;2.17;;;8.20;99.90;;;;;;4989127;28;20452;-67
2023/02/03 02:33:44;;;;;;;3.67;2.40;;;8.20;99.90;;;;;;5074220;28;20958;-67
2023/02/03 02:36:18;;;;;;;5.33;2.87;;;8.20;99.90;;;;;;5023205;28;20452;-68
2023/02/03 02:38:58;;;;;;;6.00;2.20;;;8.20;99.90;;;;;;5071615;28;20435;-68
2023/02/03 02:41:46;;;;;;;5.60;2.53;;;8.20;99.90;;;;;;5071218;28;20738;-68
2023/02/03 02:44:22;;;;;;;3.67;2.40;;;8.20;99.90;;;;;;5046667;28;20440;-68
2023/02/03 02:46:54;;;;;;;3.37;2.13;;;8.20;99.90;;;;;;5065958;28;20490;-68
2023/02/03 02:49:36;;;;;;;9.67;2.73;;;8.20;99.90;;;;;;5070355;28;20438;-67
2023/02/03 02:52:05;;;;;;;4.00;2.50;;;8.20;99.90;;;;;;5071062;28;20433;-67
2023/02/03 02:54:32;;;;;;;3.30;2.13;;;8.20;99.90;;;;;;5062707;28;21230;-68
2023/02/03 02:57:02;;;;;;;2.97;2.27;;;8.10;99.90;;;;;;5070126;28;20534;-68
2023/02/03 02:59:28;;;;;;;3.20;2.37;;;8.10;99.90;;;;;;5070073;28;20440;-67
2023/02/03 03:01:54;;;;;;;4.30;2.47;;;8.20;99.90;;;;;;5071440;28;20436;-67
2023/02/03 03:04:24;;;;;;;6.00;2.63;;;8.20;99.90;;;;;;5070540;28;20451;-67
2023/02/03 03:06:58;;;;;;;4.40;2.10;;;8.10;99.90;;;;;;5053261;28;21136;-67
2023/02/03 03:09:35;;;;;;;6.10;2.50;;;8.10;99.90;;;;;;5067828;28;20429;-67
2023/02/03 03:12:18;;;;;;;3.93;2.43;;;8.20;99.90;;;;;;5071112;28;21018;-67
2023/02/03 03:14:54;;;;;;;4.70;2.20;;;8.20;99.90;;;;;;5070581;28;20445;-67
2023/02/03 03:17:32;;;;;;;4.33;2.30;;;8.20;99.90;;;;;;5069543;28;20913;-66
2023/02/03 03:20:03;;;;;;;3.53;2.10;;;8.20;99.90;;;;;;5070734;28;20805;-67
2023/02/03 03:22:33;;;;;;;5.37;2.63;;;8.10;99.90;;;;;;5074052;28;20417;-67
2023/02/03 03:25:05;;;;;;;3.70;2.33;;;8.20;99.90;;;;;;5075635;28;20455;-67
2023/02/03 03:27:40;;;;;;;3.20;2.47;;;8.20;99.90;;;;;;5072602;28;20972;-67
2023/02/03 03:30:21;;;;;;;4.60;2.63;;;8.20;99.90;;;;;;5077551;28;20438;-67
2023/02/03 03:32:47;;;;;;;2.60;1.97;;;8.20;99.90;;;;;;5077861;28;20786;-67
2023/02/03 03:35:13;;;;;;;3.50;2.47;;;8.20;99.90;;;;;;5072108;28;20847;-67
2023/02/03 03:37:44;;;;;;;3.87;2.70;;;8.20;99.90;;;;;;5077711;28;20440;-67
2023/02/03 03:40:13;;;;;;;4.30;2.30;;;8.30;99.90;;;;;;5075330;28;20452;-67
2023/02/03 03:42:57;;;;;;;2.57;2.37;;;8.30;99.90;;;;;;5073252;28;20443;-68
2023/02/03 03:45:41;;;;;;;4.93;2.53;;;8.30;99.90;;;;;;5053501;28;21119;-67
2023/02/03 03:48:18;;;;;;;3.50;2.43;;;8.30;99.90;;;;;;5071558;28;20444;-67
2023/02/03 03:50:52;;;;;;;5.20;2.33;;;8.30;99.90;;;;;;5068083;28;20467;-67
2023/02/03 03:53:19;;;;;;;3.47;2.30;;;8.20;99.90;;;;;;5072171;28;20480;-67
2023/02/03 03:55:49;;;;;;;2.70;2.07;;;8.30;99.90;;;;;;5070920;28;20476;-67
2023/02/03 03:58:26;;;;;;;4.17;2.13;;;8.30;99.90;;;;;;5068713;28;21203;-67
2023/02/03 04:00:56;;;;;;;4.20;2.20;;;8.20;99.90;;;;;;5068162;28;20436;-67
2023/02/03 04:03:40;;;;;;;2.33;2.10;;;8.20;99.90;;;;;;5053820;28;20523;-67
2023/02/03 04:06:06;;;;;;;2.83;2.20;;;8.30;99.90;;;;;;5067461;28;20472;-67
2023/02/03 04:08:31;;;;;;;4.50;1.90;;;8.20;99.90;;;;;;5052907;28;20444;-67
2023/02/03 04:10:57;;;;;;;3.73;2.00;;;8.20;99.90;;;;;;5062681;28;20233;-66
2023/02/03 04:13:22;;;;;;;4.20;1.90;;;8.20;99.90;;;;;;5055293;28;20183;-67
2023/02/03 04:15:48;;;;;;;2.47;1.77;;;8.10;99.90;;;;;;5071891;28;20234;-67
2023/02/03 04:18:15;;;;;;;2.80;1.87;;;8.10;99.90;;;;;;5069685;28;22161;-67
2023/02/03 04:20:41;;;;;;;2.40;1.70;;;8.10;99.90;;;;;;5070264;28;21451;-67
2023/02/03 04:23:08;;;;;;;5.63;2.10;;;7.90;99.90;;;;;;5068874;28;20456;-67
2023/02/03 04:25:33;;;;;;;4.03;2.20;;;8.00;99.90;;;;;;5071019;28;20467;-67
2023/02/03 04:27:59;;;;;;;3.30;1.70;;;8.00;99.90;;;;;;5076286;28;20437;-67
2023/02/03 04:30:25;;;;;;;2.67;2.20;;;8.00;99.90;;;;;;5075386;28;20175;-67
2023/02/03 04:32:51;;;;;;;7.00;2.23;;;8.10;99.90;;;;;;5075643;28;20439;-67
2023/02/03 04:35:17;;;;;;;5.17;2.40;;;8.00;99.90;;;;;;5073999;28;20485;-67
2023/02/03 04:37:43;;;;;;;3.43;2.20;;;8.00;99.90;;;;;;5073340;28;20800;-67
2023/02/03 04:40:10;;;;;;;2.47;1.83;;;8.00;99.90;;;;;;5076670;28;20439;-67
2023/02/03 04:42:37;;;;;;;3.40;2.17;;;8.00;99.90;;;;;;5072772;28;20183;-66
2023/02/03 04:45:03;;;;;;;2.63;1.70;;;8.00;99.90;;;;;;5073269;28;20447;-66
2023/02/03 04:47:29;;;;;;;2.87;2.00;;;8.00;99.90;;;;;;5073747;28;20452;-66
2023/02/03 04:49:54;;;;;;;5.40;2.23;;;8.00;99.90;;;;;;5075706;28;20451;-67
2023/02/03 04:52:20;;;;;;;4.90;2.57;;;8.00;99.90;;;;;;5072269;28;20178;-67
2023/02/03 04:54:46;;;;;;;2.93;2.53;;;8.10;99.90;;;;;;5073274;28;20179;-66
2023/02/03 04:57:11;;;;;;;3.30;2.03;;;8.00;99.90;;;;;;5072895;28;21017;-66
2023/02/03 04:59:37;;;;;;;4.07;2.13;;;8.00;99.90;;;;;;5072174;28;20194;-66
2023/02/03 05:02:03;;;;;;;2.53;1.73;;;8.10;99.90;;;;;;5074151;28;20194;-67
2023/02/03 05:04:28;;;;;;;3.77;2.47;;;8.10;99.90;;;;;;5075031;28;20170;-67
2023/02/03 05:06:55;;;;;;;3.47;2.23;;;8.20;99.90;;;;;;5072144;28;20541;-68
2023/02/03 05:09:21;;;;;;;3.47;1.77;;;8.00;99.90;;;;;;5072905;28;20785;-67
2023/02/03 05:11:46;;;;;;;4.80;2.37;;;8.10;99.90;;;;;;5074800;28;20433;-66
2023/02/03 05:14:12;;;;;;;3.63;2.20;;;8.20;99.90;;;;;;5072343;28;20188;-67
2023/02/03 05:16:38;;;;;;;4.10;1.83;;;8.10;99.90;;;;;;5071900;28;20616;-67
2023/02/03 05:19:03;;;;;;;4.57;1.97;;;8.20;99.90;;;;;;5071408;28;20218;-66
2023/02/03 05:21:29;;;;;;;9.17;2.50;;;8.10;99.90;;;;;;5071565;28;20579;-67
2023/02/03 05:23:54;;;;;;;2.87;1.87;;;8.20;99.90;;;;;;5076557;28;20209;-67
2023/02/03 05:26:20;;;;;;;4.60;2.37;;;8.30;99.90;;;;;;5072316;28;20219;-67
2023/02/03 05:28:45;;;;;;;3.90;2.17;;;8.30;99.90;;;;;;5075314;28;20213;-67
2023/02/03 05:31:11;;;;;;;2.77;2.07;;;8.30;99.90;;;;;;5073383;28;20189;-67
2023/02/03 05:33:36;;;;;;;3.97;2.37;;;8.30;99.90;;;;;;5073433;28;20183;-67
2023/02/03 05:36:02;;;;;;;2.80;1.90;;;8.30;99.90;;;;;;5074225;28;20709;-67
2023/02/03 05:38:28;;;;;;;3.97;2.00;;;8.20;99.90;;;;;;5075877;28;20269;-67
2023/02/03 05:43:37;;;;;;;7.67;2.83;;;8.30;99.90;;;;;;5072707;28;20201;-68
2023/02/03 05:46:05;;;;;;;3.70;2.47;;;8.30;99.90;;;;;;5071810;28;20990;-68
2023/02/03 05:48:31;;;;;;;3.30;2.43;;;8.30;99.90;;;;;;5072535;28;20218;-68
2023/02/03 05:50:56;;;;;;;9.80;2.30;;;8.30;99.90;;;;;;5072214;28;20593;-67
2023/02/03 05:53:22;;;;;;;6.77;2.60;;;8.30;99.90;;;;;;5073874;28;20519;-67
2023/02/03 05:55:48;;;;;;;4.17;2.40;;;8.40;99.90;;;;;;5070997;28;20210;-66
2023/02/03 05:58:13;;;;;;;3.00;2.33;;;8.30;99.90;;;;;;5073214;28;20189;-67
2023/02/03 06:00:39;;;;;;;6.47;2.00;;;8.30;99.90;;;;;;5071800;28;20190;-67
2023/02/03 06:03:05;;;;;;;2.73;2.23;;;8.40;99.90;;;;;;5075572;28;20627;-67
2023/02/03 06:05:32;;;;;;;4.17;1.90;;;8.40;99.90;;;;;;5071581;28;20309;-67
2023/02/03 06:07:58;;;;;;;3.90;1.97;;;8.40;99.90;;;;;;5070718;28;20689;-67
2023/02/03 06:10:24;;;;;;;2.93;1.77;;;8.40;99.90;;;;;;5072618;28;20440;-67
2023/02/03 06:12:50;;;;;;;7.10;2.37;;;8.30;99.90;;;;;;5071442;28;20436;-68
2023/02/03 06:15:16;;;;;;;3.13;2.23;;;8.20;99.90;;;;;;5070682;28;20491;-68
2023/02/03 06:17:46;;;;;;;4.07;3.00;;;8.20;99.90;;;;;;5067809;28;20455;-67
2023/02/03 06:20:14;;;;;;;3.40;2.10;;;8.20;99.90;;;;;;5073788;28;20449;-69
2023/02/03 06:22:40;;;;;;;4.50;1.87;;;8.20;99.90;;;;;;5072327;28;20475;-68
2023/02/03 06:25:06;;;;;;;3.20;2.07;;;8.20;99.90;;;;;;5073169;28;20480;-68
2023/02/03 06:27:32;;;;;;;3.07;1.90;;;8.10;99.90;;;;;;5070392;28;20464;-68
2023/02/03 06:29:57;;;;;;;7.47;2.60;;;8.20;99.90;;;;;;5073190;28;20803;-68
2023/02/03 06:32:23;;;;;;;3.80;2.67;;;8.00;99.90;;;;;;5064152;28;20193;-67
2023/02/03 06:34:48;;;;;;;4.90;2.57;;;8.00;99.90;;;;;;5068102;28;20189;-69
2023/02/03 06:37:14;;;;;;;5.40;2.93;;;7.90;99.90;;;;;;5066533;28;20226;-68
2023/02/03 06:39:40;;;;;;;2.63;1.80;;;7.90;99.90;;;;;;5068363;28;20261;-68
2023/02/03 06:42:05;;;;;;;3.40;2.20;;;7.90;99.90;;;;;;5072587;28;20205;-69
2023/02/03 06:44:31;;;;;;;3.00;1.90;;;7.90;99.90;;;;;;5070451;28;20186;-67
2023/02/03 06:46:57;;;;;;;3.37;2.33;;;7.90;99.90;;;;;;5068741;28;20631;-68
2023/02/03 06:49:23;;;;;;;2.73;1.90;;;7.90;99.90;;;;;;5070779;28;20182;-68
2023/02/03 06:51:49;;;;;;;4.53;2.37;;;7.80;99.90;;;;;;5068542;28;20440;-68
2023/02/03 06:54:15;;;;;;;9.67;2.80;;;7.80;99.90;;;;;;5071155;28;20432;-68
2023/02/03 06:56:40;;;;;;;3.90;2.30;;;7.80;99.90;;;;;;5068516;28;20264;-68
2023/02/03 06:59:07;;;;;;;5.00;2.40;;;7.90;99.90;;;;;;5068900;28;20186;-68
2023/02/03 07:01:33;;;;;;;7.43;2.53;;;7.80;99.90;;;;;;5069851;28;20301;-68
2023/02/03 07:03:58;;;;;;;5.33;2.63;;;7.70;99.90;;;;;;5068158;28;21037;-67
2023/02/03 07:06:29;;;;;;;4.60;2.50;;;7.70;99.90;;;;;;5067611;28;20214;-67
2023/02/03 07:08:55;;;;;;;3.67;2.40;;;7.70;99.90;;;;;;5067108;28;20186;-68
2023/02/03 07:11:21;;;;;;;4.80;2.50;;;7.70;99.90;;;;;;5068379;28;20429;-67
2023/02/03 07:13:47;;;;;;;3.60;3.00;;;7.80;99.90;;;;;;5071045;28;20427;-67
2023/02/03 07:16:13;;;;;;;4.43;2.50;;;7.70;99.90;;;;;;5066627;28;20550;-67
2023/02/03 07:18:39;;;;;;;16.70;2.63;;;7.60;99.90;;;;;;5070785;28;20193;-67
2023/02/03 07:21:05;;;;;;;9.87;2.87;;;7.60;99.90;;;;;;5055835;28;20202;-67
2023/02/03 07:23:31;;;;;;;5.83;2.97;;;7.60;99.90;;;;;;5072829;28;20194;-68
2023/02/03 07:26:03;;;;;;;4.77;2.47;;;7.60;99.90;;;;;;5070061;28;20464;-67
2023/02/03 07:28:29;;;;;;;6.73;3.20;;;7.60;99.90;;;;;;5073276;28;20454;-68
2023/02/03 07:30:55;;;;;;;3.90;2.57;;;7.60;99.90;;;;;;5067796;28;20443;-67
2023/02/03 07:33:21;;;;;;;4.13;2.37;;;7.50;99.90;;;;;;5065488;28;20849;-67
2023/02/03 07:35:54;;;;;;;3.43;2.20;;;7.60;99.90;;;;;;5051491;28;20448;-67
2023/02/03 07:38:19;;;;;;;4.03;2.67;;;7.60;99.90;;;;;;5076296;28;20239;-68
2023/02/03 07:40:45;;;;;;;3.93;2.90;;;7.60;99.90;;;;;;5058143;28;20555;-67
2023/02/03 07:43:11;;;;;;;5.93;3.10;;;7.70;99.90;;;;;;5073797;28;20190;-68
2023/02/03 07:45:36;;;;;;;4.10;2.40;;;7.60;99.90;;;;;;5072645;28;20234;-68
2023/02/03 07:48:02;;;;;;;4.10;2.40;;;7.60;99.90;;;;;;5066790;28;20175;-68
2023/02/03 07:50:27;;;;;;;7.37;3.20;;;7.70;99.90;;;;;;5069279;28;20187;-68
2023/02/03 07:52:54;;;;;;;5.00;2.90;;;7.80;99.90;;;;;;5072567;28;20209;-68
2023/02/03 07:55:20;;;;;;;6.73;2.40;;;7.80;99.90;;;;;;5069009;28;20706;-67
2023/02/03 07:57:46;;;;;;;8.70;2.67;;;7.90;99.90;;;;;;5071225;28;21600;-67
2023/02/03 08:00:13;;;;;;;4.97;3.23;;;7.90;99.90;;;;;;5066355;28;20444;-67
2023/02/03 08:02:40;;;;;;;3.07;2.40;;;8.00;99.90;;;;;;5068012;28;20193;-67
2023/02/03 08:05:05;;;;;;;4.90;2.73;;;8.00;99.90;;;;;;5068453;28;20489;-66
2023/02/03 08:07:31;;;;;;;4.17;2.67;;;8.00;99.90;;;;;;5070413;28;20830;-67
2023/02/03 08:09:57;;;;;;;3.80;2.60;;;8.00;99.90;;;;;;5074714;28;20748;-66
2023/02/03 08:12:22;;;;;;;5.00;2.90;;;8.10;99.90;;;;;;5074773;28;20831;-66
2023/02/03 08:14:48;;;;;;;5.60;3.30;;;8.10;99.90;;;;;;5058045;28;20273;-67
2023/02/03 08:17:13;;;;;;;6.83;3.10;;;8.00;99.90;;;;;;5076731;28;20202;-67
2023/02/03 08:19:39;;;;;;;5.93;3.87;;;8.00;99.90;;;;;;5074095;28;21048;-67
2023/02/03 08:22:05;;;;;;;9.43;3.13;;;8.00;99.90;;;;;;5078808;28;20274;-67
2023/02/03 08:24:30;;;;;;;6.90;2.90;;;8.00;99.90;;;;;;5077181;28;20182;-67
2023/02/03 08:26:56;;;;;;;4.10;2.60;;;8.00;99.90;;;;;;5073796;28;20224;-67
2023/02/03 08:29:21;;;;;;;10.13;2.83;;;8.00;99.90;;;;;;5058517;28;20190;-67
2023/02/03 08:31:47;;;;;;;5.47;2.87;;;8.00;99.90;;;;;;5074074;28;20178;-67
2023/02/03 08:34:12;;;;;;;7.20;2.80;;;8.00;99.90;;;;;;5075029;28;20220;-68
2023/02/03 08:36:38;;;;;;;3.30;2.13;;;8.00;99.90;;;;;;5069974;28;20229;-68
2023/02/03 08:39:05;;;;;;;3.70;2.60;;;8.10;99.90;;;;;;5071984;28;20182;-66
2023/02/03 08:41:32;;;;;;;5.63;3.20;;;8.10;99.90;;;;;;5072258;28;20479;-66
2023/02/03 08:43:58;;;;;;;3.87;2.70;;;8.10;99.90;;;;;;5054524;28;20436;-66
2023/02/03 08:46:23;;;;;;;4.47;3.03;;;8.10;99.90;;;;;;5072134;28;20564;-66
2023/02/03 08:48:49;;;;;;;4.87;3.00;;;8.10;99.90;;;;;;5072882;28;21111;-66
2023/02/03 08:51:16;;;;;;;5.20;3.00;;;8.10;99.90;;;;;;5070947;28;20183;-66
2023/02/03 08:53:42;;;;;;;6.10;3.33;;;8.00;99.90;;;;;;5073506;28;20174;-67
2023/02/03 08:56:11;;;;;;;6.90;3.70;;;8.00;99.90;;;;;;5073669;28;20509;-69
2023/02/03 08:58:37;;;;;;;3.43;2.77;;;8.00;99.90;;;;;;5072436;28;20641;-68
2023/02/03 09:01:11;;;;;;;5.93;2.67;;;8.10;99.90;;;;;;5072370;28;20489;-67
2023/02/03 09:03:38;;;;;;;4.10;2.70;;;8.00;99.90;;;;;;5075210;28;20554;-67
2023/02/03 09:06:05;;;;;;;4.40;2.90;;;8.00;99.90;;;;;;5073128;28;20575;-67
2023/02/03 09:08:30;;;;;;;6.80;3.40;;;8.00;99.90;;;;;;5073616;28;20907;-67
2023/02/03 09:10:56;;;;;;;7.40;3.77;;;8.00;99.90;;;;;;5080214;28;20475;-67
2023/02/03 09:13:22;;;;;;;4.37;2.50;;;8.00;99.90;;;;;;5073095;28;20193;-67
2023/02/03 09:15:47;;;;;;;4.30;2.90;;;8.00;99.90;;;;;;5073993;28;20574;-67
2023/02/03 09:18:13;;;;;;;5.43;2.70;;;8.00;99.90;;;;;;5071435;28;20590;-67
2023/02/03 09:20:38;;;;;;;6.27;2.70;;;8.00;99.90;;;;;;5057027;28;20683;-67
2023/02/03 09:23:04;;;;;;;6.13;2.90;;;8.00;99.90;;;;;;5076302;28;20179;-67
2023/02/03 09:25:30;;;;;;;4.40;3.00;;;8.00;99.90;;;;;;5074657;28;20202;-68
2023/02/03 09:27:55;;;;;;;3.70;2.93;;;8.00;99.90;;;;;;5058477;28;20549;-68
2023/02/03 09:30:21;;;;;;;9.10;3.07;;;8.00;99.90;;;;;;5074256;28;20181;-69
2023/02/03 09:32:52;;;;;;;6.50;3.00;;;8.00;99.90;;;;;;5071421;28;21213;-68
2023/02/03 09:35:18;;;;;;;5.30;3.00;;;7.90;99.90;;;;;;5074078;28;20174;-67
2023/02/03 09:37:44;;;;;;;5.03;3.07;;;7.90;99.90;;;;;;5070060;28;20528;-69
2023/02/03 09:40:21;;;;;;;7.33;2.93;;;8.00;99.90;;;;;;5059159;28;21811;-69
2023/02/03 09:43:02;;;;;;;4.03;2.60;;;8.10;99.90;;;;;;5065894;28;20182;-68
2023/02/03 09:45:29;;;;;;;5.80;3.40;;;8.00;99.90;;;;;;5062848;28;20471;-67
2023/02/03 09:48:05;;;;;;;4.77;2.90;;;8.10;99.90;;;;;;5066367;28;20435;-67
2023/02/03 09:50:34;;;;;;;6.70;3.37;;;8.20;99.90;;;;;;5067217;28;20424;-67
2023/02/03 09:53:06;;;;;;;5.03;2.67;;;8.20;99.90;;;;;;5072706;28;20424;-69
2023/02/03 09:55:42;;;;;;;3.93;3.10;;;8.20;99.90;;;;;;5068989;28;21411;-68
2023/02/03 09:58:19;;;;;;;5.13;2.70;;;8.30;99.90;;;;;;5050056;28;20452;-68
2023/02/03 10:00:53;;;;;;;4.80;2.80;;;8.20;99.90;;;;;;5071862;28;20428;-67
2023/02/03 10:03:29;;;;;;;4.60;3.10;;;8.20;99.90;;;;;;5070078;28;20440;-67
2023/02/03 10:06:32;;;;;;;6.13;3.00;;;8.20;99.90;;;;;;5053076;28;20472;-68
2023/02/03 10:09:19;;;;;;;3.73;2.50;;;8.30;99.90;;;;;;5066926;28;20426;-69
2023/02/03 10:11:55;;;;;;;4.57;3.20;;;8.30;99.90;;;;;;5067695;28;20514;-67
2023/02/03 10:14:52;;;;;;;4.87;3.20;;;8.40;99.90;;;;;;5071923;28;21181;-68
2023/02/03 10:17:27;;;;;;;4.20;2.63;;;8.40;99.90;;;;;;5072040;28;20492;-68
2023/02/03 10:20:08;;;;;;;4.87;3.20;;;8.40;99.90;;;;;;5070608;28;20435;-70
2023/02/03 10:22:40;;;;;;;8.73;3.60;;;8.40;99.90;;;;;;5066969;28;20444;-70
2023/02/03 10:25:23;;;;;;;4.83;3.00;;;8.40;99.90;;;;;;5069855;28;20457;-70
2023/02/03 10:27:57;;;;;;;3.27;2.70;;;8.40;99.90;;;;;;5071298;28;20495;-70
2023/02/03 10:30:28;;;;;;;5.57;3.60;;;8.40;99.90;;;;;;5054190;28;20949;-70
2023/02/03 10:33:00;;;;;;;4.83;2.97;;;8.50;99.90;;;;;;5051305;28;20474;-71
2023/02/03 10:35:34;;;;;;;8.40;3.77;;;8.50;99.90;;;;;;5058371;28;20429;-68
2023/02/03 10:38:00;;;;;;;3.37;2.70;;;8.50;99.90;;;;;;5072075;28;21004;-69
2023/02/03 10:40:27;;;;;;;5.27;3.00;;;8.50;99.90;;;;;;5055457;28;20437;-67
2023/02/03 10:45:38;;;;;;;7.83;2.90;;;8.50;99.90;;;;;;5071224;28;20966;-71
2023/02/03 10:48:10;;;;;;;6.20;3.20;;;8.60;99.90;;;;;;5072149;28;20440;-71
2023/02/03 10:50:41;;;;;;;4.50;2.60;;;8.60;99.90;;;;;;5069789;28;20487;-70
2023/02/03 10:53:30;;;;;;;5.60;3.17;;;8.70;99.90;;;;;;5070456;28;20548;-71
2023/02/03 10:56:05;;;;;;;4.13;3.03;;;8.70;99.90;;;;;;5067149;28;20582;-72
2023/02/03 10:58:33;;;;;;;5.40;2.60;;;8.80;99.90;;;;;;5050380;28;20443;-72
2023/02/03 11:01:16;;;;;;;3.73;3.00;;;8.90;99.90;;;;;;5048853;28;20486;-70
2023/02/03 11:03:52;;;;;;;4.17;2.67;;;9.00;99.90;;;;;;5066999;28;20478;-70
2023/02/03 11:06:18;;;;;;;3.47;2.50;;;8.90;99.90;;;;;;5072943;28;22595;-71
2023/02/03 11:08:47;;;;;;;3.57;2.40;;;9.00;99.90;;;;;;5072117;28;20437;-70
2023/02/03 11:11:18;;;;;;;3.73;3.00;;;9.00;99.90;;;;;;5074565;28;20247;-70
2023/02/03 11:13:47;;;;;;;5.37;2.80;;;9.10;99.90;;;;;;5074857;28;20576;-68
2023/02/03 11:16:16;;;;;;;5.00;3.00;;;9.10;99.90;;;;;;5072028;28;20514;-67
2023/02/03 11:19:02;;;;;;;2.93;2.27;;;9.10;99.90;;;;;;5075866;28;20435;-69
2023/02/03 11:21:40;;;;;;;5.33;2.80;;;9.10;99.90;;;;;;5072439;28;20440;-70
2023/02/03 11:24:30;;;;;;;5.13;3.60;;;9.10;99.90;;;;;;5074492;28;20420;-69
2023/02/03 11:26:57;;;;;;;4.40;3.37;;;9.20;99.90;;;;;;5070502;28;20475;-70
2023/02/03 11:29:29;;;;;;;3.57;2.97;;;9.20;99.90;;;;;;5070300;28;20434;-70
2023/02/03 11:31:57;;;;;;;4.70;2.60;;;9.20;99.90;;;;;;5074724;28;20498;-68
2023/02/03 11:34:35;;;;;;;7.40;2.70;;;9.30;99.90;;;;;;5055794;28;20423;-70
2023/02/03 11:37:30;;;;;;;8.03;2.43;;;9.10;99.90;;;;;;5072535;28;20512;-70
2023/02/03 11:40:14;;;;;;;4.30;2.47;;;9.30;99.90;;;;;;5079542;28;20436;-68
2023/02/03 11:42:57;;;;;;;4.13;2.53;;;9.30;99.90;;;;;;5075250;28;20463;-68
2023/02/03 11:45:28;;;;;;;5.43;3.07;;;9.30;99.90;;;;;;5079546;28;20440;-68
2023/02/03 11:48:21;;;;;;;4.27;2.93;;;9.30;99.90;;;;;;5077380;28;20835;-70
2023/02/03 11:51:24;;;;;;;4.30;2.80;;;9.30;99.90;;;;;;5077168;28;20432;-68
2023/02/03 11:53:56;;;;;;;6.37;2.90;;;9.40;99.90;;;;;;5071047;28;20433;-67
2023/02/03 11:56:30;;;;;;;5.83;2.70;;;9.50;99.90;;;;;;5072796;28;20451;-69
2023/02/03 11:59:06;;;;;;;6.00;2.33;;;9.50;99.90;;;;;;5074376;28;20433;-70
2023/02/03 12:02:01;;;;;;;4.93;1.90;;;9.60;99.90;;;;;;5073992;28;20490;-67
2023/02/03 12:04:53;;;;;;;2.00;1.60;;;9.60;99.90;;;;;;5073946;28;20446;-65
2023/02/03 12:07:43;;;;;;;2.80;1.90;;;9.60;99.90;;;;;;5072784;28;20486;-68
2023/02/03 12:10:32;;;;;;;2.83;2.10;;;9.60;99.90;;;;;;5067262;28;20450;-68
2023/02/03 12:13:30;;;;;;;4.17;1.63;;;9.60;99.90;;;;;;5069452;28;20447;-70
2023/02/03 12:16:26;;;;;;;2.83;1.60;;;9.60;99.90;;;;;;5070423;28;20547;-68
2023/02/03 12:19:07;;;;;;;4.20;1.73;;;9.70;99.90;;;;;;5067416;28;20432;-68
2023/02/03 12:21:33;;;;;;;2.67;1.60;;;9.70;99.90;;;;;;5045771;28;20455;-68
2023/02/03 12:24:27;;;;;;;3.53;1.53;;;9.80;99.90;;;;;;5074097;28;20874;-68
2023/02/03 12:27:06;;;;;;;2.67;2.10;;;9.80;99.90;;;;;;5033253;28;20256;-67
2023/02/03 12:29:38;;;;;;;2.40;1.80;;;9.80;99.90;;;;;;5071769;28;20641;-67
2023/02/03 12:32:30;;;;;;;3.07;1.60;;;9.80;99.90;;;;;;5073365;28;20451;-67
2023/02/03 12:35:10;;;;;;;2.43;1.40;;;9.70;99.90;;;;;;5070747;28;21278;-67
2023/02/03 12:37:36;;;;;;;2.73;1.70;;;9.70;99.90;;;;;;5069399;28;20463;-69
2023/02/03 12:40:06;;;;;;;2.63;1.77;;;9.70;99.90;;;;;;5068625;28;20440;-68
2023/02/03 12:42:40;;;;;;;3.53;1.80;;;9.60;99.90;;;;;;5069663;28;20195;-69
2023/02/03 12:45:35;;;;;;;3.80;1.80;;;9.60;99.90;;;;;;5071346;28;22663;-70
2023/02/03 12:48:10;;;;;;;2.70;1.80;;;9.60;99.90;;;;;;5067587;28;20831;-67
2023/02/03 12:50:51;;;;;;;2.30;1.80;;;9.60;99.90;;;;;;5071031;28;20439;-66
2023/02/03 12:53:23;;;;;;;4.20;2.10;;;9.50;99.90;;;;;;5073025;28;20439;-67
2023/02/03 12:56:09;;;;;;;2.73;2.10;;;9.50;99.90;;;;;;5068569;28;20469;-68
2023/02/03 12:58:46;;;;;;;2.10;1.83;;;9.60;99.90;;;;;;5071388;28;20527;-68
2023/02/03 13:01:21;;;;;;;2.97;2.10;;;9.60;99.90;;;;;;5070276;28;20443;-71
2023/02/03 13:04:30;;;;;;;3.67;1.53;;;9.60;99.90;;;;;;5067175;28;20904;-70
2023/02/03 13:07:06;;;;;;;3.43;2.40;;;9.70;99.90;;;;;;5022271;28;20479;-69
2023/02/03 13:09:48;;;;;;;2.60;1.80;;;9.70;99.90;;;;;;5071165;28;20431;-70
2023/02/03 13:12:42;;;;;;;2.43;1.47;;;9.70;99.90;;;;;;5074213;28;20483;-70
2023/02/03 13:15:21;;;;;;;3.60;1.93;;;9.70;99.90;;;;;;5070721;28;20972;-70
2023/02/03 13:18:01;;;;;;;3.17;2.07;;;9.80;99.90;;;;;;5070939;28;20456;-71
2023/02/03 13:20:30;;;;;;;2.03;1.60;;;9.80;99.90;;;;;;5073517;28;20974;-70
2023/02/03 13:22:56;;;;;;;2.30;1.40;;;9.80;99.90;;;;;;5072248;28;20844;-70